Overview Statistics Trail Chart Weather Telemetry Raw packets
 

This is the latest recevied weather packets stored in our database for station/object WX0ABE-13. If no packets are shown the sender has not sent any weather packets the latest 10 day(s).

<< 54 55 56 57 58 59 60 >>
Time Temp. Humidity Pressure Rain* Wind** Luminosity Snow
1787969671 31.11° C 30% 1015.8 hPa 0 mm - 0 W/m² -
1787969371 30.56° C 29% 1015.9 hPa 0 mm - 0 W/m² -
1787969070 30.56° C 29% 1015.9 hPa 0 mm - 0 W/m² -
1787968765 30.56° C 30% 1016.1 hPa 0 mm - 0 W/m² -
1787968465 30.56° C 30% 1016.2 hPa 0 mm - 0 W/m² -
1787968160 31.11° C 29% 1016.3 hPa 0 mm - 0 W/m² -
1787967859 31.11° C 28% 1016.1 hPa 0 mm - 0 W/m² -
1787967557 31.11° C 28% 1016.1 hPa 0 mm - 0 W/m² -
1787967257 31.67° C 29% 1016.1 hPa 0 mm - 0 W/m² -
1787966953 32.22° C 27% 1015.8 hPa 0 mm - 1 W/m² -
1787966657 32.22° C 25% 1015.6 hPa 0 mm - 1 W/m² -
1787966349 32.22° C 26% 1015.3 hPa 0 mm - 2 W/m² -
1787966044 32.22° C 25% 1015.3 hPa 0 mm - 4 W/m² -
1787965744 31.67° C 25% 1015.2 hPa 0 mm - 10 W/m² -
1787965444 32.22° C 25% 1015.2 hPa 0 mm - 26 W/m² -
1787965143 31.67° C 25% 1014.9 hPa 0 mm - 28 W/m² -
1787964838 30° C 28% 1015.7 hPa 0 mm - 11 W/m² -
1787964533 29.44° C 33% 1016.1 hPa 0 mm - 6 W/m² -
1787964228 29.44° C 35% 1016.4 hPa 0 mm - 4 W/m² -
1787963927 30° C 35% 1016.6 hPa 0 mm - 4 W/m² -
1787963623 30.56° C 31% 1016.4 hPa 0 mm - 4 W/m² -
1787963323 30.56° C 38% 1015.9 hPa 0 mm - 4 W/m² -
1787963023 31.11° C 37% 1015.3 hPa 0 mm - 4 W/m² -
1787962717 31.11° C 38% 1015.2 hPa 0 mm - 6 W/m² -
1787962417 31.67° C 40% 1015.2 hPa 0 mm - 10 W/m² -

* Rain latest hour (hover to see other rain measurements)
** Current wind speed in m/s (hover to see current wind gust speed)